createdAt,value
2018-03-29T00:01:44.252Z,13.10
2018-03-29T00:04:16.171Z,14.83
2018-03-29T00:06:48.814Z,14.60
2018-03-29T00:09:20.712Z,14.37
2018-03-29T00:11:53.368Z,15.40
2018-03-29T00:14:25.311Z,15.43
2018-03-29T00:16:57.159Z,15.23
2018-03-29T00:19:29.077Z,15.00
2018-03-29T00:22:01.732Z,15.07
2018-03-29T00:24:33.645Z,15.97
2018-03-29T00:27:05.523Z,16.30
2018-03-29T00:29:37.444Z,14.53
2018-03-29T00:32:09.325Z,15.87
2018-03-29T00:34:41.241Z,16.07
2018-03-29T00:37:13.114Z,16.03
2018-03-29T00:39:45.827Z,16.80
2018-03-29T00:42:17.708Z,15.90
2018-03-29T00:44:49.940Z,17.43
2018-03-29T00:47:22.105Z,16.53
2018-03-29T00:49:54.016Z,17.20
2018-03-29T00:52:26.130Z,18.33
2018-03-29T00:54:58.040Z,17.83
2018-03-29T00:57:29.915Z,17.10
2018-03-29T01:00:02.613Z,17.93
2018-03-29T01:02:35.253Z,18.50
2018-03-29T01:05:07.472Z,17.73
2018-03-29T01:07:39.348Z,17.70
2018-03-29T01:10:11.269Z,17.87
2018-03-29T01:12:43.922Z,17.50
2018-03-29T01:15:16.147Z,18.07
2018-03-29T01:17:48.027Z,17.73
2018-03-29T01:20:19.936Z,17.57
2018-03-29T01:22:52.588Z,17.80
2018-03-29T01:25:24.808Z,17.73
2018-03-29T01:27:56.692Z,17.77
2018-03-29T01:30:28.600Z,18.03
2018-03-29T01:33:00.485Z,18.57
2018-03-29T01:35:32.392Z,17.10
2018-03-29T01:38:04.278Z,17.90
2018-03-29T01:40:36.196Z,17.23
2018-03-29T01:43:08.074Z,17.23
2018-03-29T01:45:39.984Z,16.77
2018-03-29T01:48:12.664Z,17.53
2018-03-29T01:50:45.362Z,16.90
2018-03-29T01:53:17.283Z,16.77
2018-03-29T01:55:50.295Z,17.47
2018-03-29T01:58:22.183Z,17.10
2018-03-29T02:00:54.092Z,17.90
2018-03-29T02:03:26.743Z,18.33
2018-03-29T02:05:58.718Z,18.40
2018-03-29T02:08:30.597Z,18.13
2018-03-29T02:11:03.276Z,18.67
2018-03-29T02:13:35.920Z,17.90
2018-03-29T02:16:07.840Z,19.00
2018-03-29T02:18:39.726Z,18.37
2018-03-29T02:21:11.639Z,18.43
2018-03-29T02:23:44.275Z,18.00
2018-03-29T02:26:16.496Z,17.63
2018-03-29T02:28:48.377Z,18.03
2018-03-29T02:31:20.289Z,17.67
2018-03-29T02:33:52.170Z,17.00
2018-03-29T02:36:24.950Z,17.97
2018-03-29T02:38:57.592Z,18.23
2018-03-29T02:41:29.496Z,17.27
2018-03-29T02:44:01.389Z,16.87
2018-03-29T02:46:33.276Z,17.83
2018-03-29T02:49:05.154Z,16.13
2018-03-29T02:51:37.360Z,16.07
2018-03-29T02:54:09.240Z,17.37
2018-03-29T02:56:41.168Z,16.27
2018-03-29T02:59:13.058Z,17.53
2018-03-29T03:01:44.997Z,16.57
2018-03-29T03:04:16.882Z,16.40
2018-03-29T03:06:48.800Z,16.57
2018-03-29T03:09:21.445Z,16.37
2018-03-29T03:11:53.362Z,17.00
2018-03-29T03:14:25.517Z,16.80
2018-03-29T03:16:57.404Z,15.50
2018-03-29T03:19:29.544Z,15.20
2018-03-29T03:22:01.440Z,16.13
2018-03-29T03:24:33.323Z,15.80
2018-03-29T03:27:05.227Z,14.43
2018-03-29T03:29:37.103Z,16.60
2018-03-29T03:32:09.251Z,15.40
2018-03-29T03:34:41.141Z,15.37
2018-03-29T03:37:13.049Z,16.03
2018-03-29T03:39:45.953Z,15.50
2018-03-29T03:42:17.856Z,15.20
2018-03-29T03:44:49.744Z,15.03
2018-03-29T03:47:21.633Z,15.57
2018-03-29T03:49:53.519Z,15.20
2018-03-29T03:52:25.657Z,15.30
2018-03-29T03:54:57.540Z,14.53
2018-03-29T03:57:29.684Z,15.47
2018-03-29T04:00:01.574Z,15.93
2018-03-29T04:02:33.476Z,15.57
2018-03-29T04:05:05.362Z,15.37
2018-03-29T04:07:38.352Z,16.13
2018-03-29T04:10:10.229Z,15.47
2018-03-29T04:12:42.140Z,16.23
2018-03-29T04:15:14.033Z,15.37
2018-03-29T04:17:45.944Z,16.33
2018-03-29T04:20:17.840Z,16.50
2018-03-29T04:22:50.521Z,16.17
2018-03-29T04:25:23.168Z,16.90
2018-03-29T04:27:55.081Z,16.60
2018-03-29T04:30:27.235Z,16.73
2018-03-29T04:32:59.405Z,17.07
2018-03-29T04:35:31.294Z,16.70
2018-03-29T04:38:03.428Z,19.00
2018-03-29T04:40:35.310Z,18.47
2018-03-29T04:43:07.452Z,17.97
2018-03-29T04:45:39.329Z,18.30
2018-03-29T04:48:11.245Z,19.50
2018-03-29T04:50:43.120Z,18.43
2018-03-29T04:53:15.800Z,19.07
2018-03-29T04:55:48.476Z,18.80
2018-03-29T04:58:21.154Z,18.63
2018-03-29T05:00:53.817Z,18.80
2018-03-29T05:03:25.736Z,18.47
2018-03-29T05:05:57.624Z,19.57
2018-03-29T05:08:29.548Z,16.87
2018-03-29T05:11:01.438Z,18.83
2018-03-29T05:13:33.364Z,19.57
2018-03-29T05:16:05.257Z,18.33
2018-03-29T05:18:37.170Z,18.03
2018-03-29T05:21:09.060Z,17.67
2018-03-29T05:23:40.976Z,18.13
2018-03-29T05:26:13.629Z,19.67
2018-03-29T05:28:45.561Z,20.57
2018-03-29T05:31:17.440Z,19.30
2018-03-29T05:33:49.389Z,20.03
2018-03-29T05:36:21.272Z,20.47
2018-03-29T05:38:53.248Z,20.70
2018-03-29T05:41:25.139Z,20.77
2018-03-29T05:43:57.068Z,20.90
2018-03-29T05:46:28.989Z,20.63
2018-03-29T05:49:00.901Z,22.23
2018-03-29T05:51:33.552Z,21.13
2018-03-29T05:54:05.478Z,20.27
2018-03-29T05:56:37.356Z,20.67
2018-03-29T05:59:09.273Z,21.43
2018-03-29T06:01:41.920Z,19.90
2018-03-29T06:04:13.822Z,22.17
2018-03-29T06:06:45.709Z,20.33
2018-03-29T06:09:17.620Z,22.27
2018-03-29T06:11:50.262Z,21.73
2018-03-29T06:14:22.175Z,21.70
2018-03-29T06:16:55.064Z,20.40
2018-03-29T06:19:26.968Z,20.97
2018-03-29T06:21:58.864Z,20.47
2018-03-29T06:24:31.769Z,19.03
2018-03-29T06:27:03.668Z,19.27
2018-03-29T06:29:35.580Z,19.87
2018-03-29T06:32:08.221Z,18.70
2018-03-29T06:34:40.226Z,19.87
2018-03-29T06:37:12.108Z,20.03
2018-03-29T06:39:44.024Z,20.73
2018-03-29T06:42:16.669Z,26.37
2018-03-29T06:44:48.568Z,24.97
2018-03-29T06:47:21.218Z,26.57
2018-03-29T06:49:53.130Z,26.23
2018-03-29T06:52:25.013Z,26.23
2018-03-29T06:54:56.908Z,24.27
2018-03-29T06:57:28.801Z,24.90
2018-03-29T07:00:01.486Z,24.43
2018-03-29T07:02:33.364Z,23.43
2018-03-29T07:05:05.277Z,19.60
2018-03-29T07:07:37.152Z,22.37
2018-03-29T07:10:09.828Z,18.43
2018-03-29T07:12:41.723Z,20.17
2018-03-29T07:15:13.637Z,19.33
2018-03-29T07:17:45.512Z,19.93
2018-03-29T07:20:18.191Z,19.57
2018-03-29T07:22:50.831Z,19.27
2018-03-29T07:25:22.752Z,17.80
2018-03-29T07:27:54.636Z,18.93
2018-03-29T07:30:26.875Z,19.60
2018-03-29T07:32:59.037Z,20.30
2018-03-29T07:35:30.931Z,20.80
2018-03-29T07:38:02.807Z,22.07
2018-03-29T07:40:34.713Z,21.20
2018-03-29T07:43:07.356Z,21.17
2018-03-29T07:45:39.270Z,20.40
2018-03-29T07:48:11.817Z,16.80
2018-03-29T07:50:44.563Z,17.37
2018-03-29T07:53:16.490Z,16.53
2018-03-29T07:55:49.133Z,16.00
2018-03-29T07:58:22.045Z,15.87
2018-03-29T08:00:53.948Z,15.47
2018-03-29T08:03:25.850Z,16.13
2018-03-29T08:05:58.554Z,15.30
2018-03-29T08:08:30.703Z,14.33
2018-03-29T08:11:02.616Z,15.47
2018-03-29T08:13:34.878Z,15.20
2018-03-29T08:16:06.832Z,14.53
2018-03-29T08:18:38.718Z,15.27
2018-03-29T08:21:10.855Z,14.90
2018-03-29T08:23:42.779Z,14.03
2018-03-29T08:26:14.691Z,14.70
2018-03-29T08:28:46.589Z,13.73
2018-03-29T08:31:19.488Z,13.50
2018-03-29T08:33:51.366Z,14.43
2018-03-29T08:36:23.281Z,13.50
2018-03-29T08:38:55.152Z,14.70
2018-03-29T08:41:27.819Z,13.70
2018-03-29T08:44:00.729Z,13.37
2018-03-29T08:46:32.649Z,12.37
2018-03-29T08:49:04.534Z,13.87
2018-03-29T08:51:37.223Z,12.87
2018-03-29T08:54:10.113Z,11.90
2018-03-29T08:56:42.019Z,11.93
2018-03-29T08:59:13.960Z,10.57
2018-03-29T09:01:46.204Z,10.50
2018-03-29T09:04:18.092Z,9.77
2018-03-29T09:06:49.989Z,8.90
2018-03-29T09:09:21.869Z,8.13
2018-03-29T09:11:54.564Z,7.37
2018-03-29T09:14:26.440Z,7.47
2018-03-29T09:16:58.368Z,7.37
2018-03-29T09:19:31.013Z,8.30
2018-03-29T09:22:02.934Z,8.40
2018-03-29T09:24:34.824Z,7.57
2018-03-29T09:27:06.729Z,7.80
2018-03-29T09:29:39.379Z,8.63
2018-03-29T09:32:11.286Z,8.40
2018-03-29T09:34:43.192Z,10.87
2018-03-29T09:37:15.120Z,9.13
2018-03-29T09:39:46.992Z,8.47
2018-03-29T09:42:18.904Z,8.60
2018-03-29T09:44:51.809Z,7.50
2018-03-29T09:47:23.720Z,8.27
2018-03-29T09:49:55.597Z,7.00
2018-03-29T09:52:27.513Z,7.00
2018-03-29T09:54:59.652Z,6.50
2018-03-29T09:57:31.579Z,6.63
2018-03-29T10:00:03.464Z,5.60
2018-03-29T10:02:36.148Z,6.33
2018-03-29T10:05:08.795Z,5.80
2018-03-29T10:07:40.720Z,5.30
2018-03-29T10:10:12.600Z,5.40
2018-03-29T10:12:44.505Z,5.23
2018-03-29T10:15:17.396Z,5.07
2018-03-29T10:17:49.305Z,5.80
2018-03-29T10:20:21.210Z,5.70
2018-03-29T10:22:53.871Z,5.50
2018-03-29T10:25:25.767Z,5.00
2018-03-29T10:27:57.688Z,4.90
2018-03-29T10:30:29.888Z,5.50
2018-03-29T10:33:01.816Z,5.50
2018-03-29T10:35:33.711Z,6.50
2018-03-29T10:38:05.634Z,7.23
2018-03-29T10:40:38.552Z,6.83
2018-03-29T10:43:10.477Z,7.00
2018-03-29T10:45:42.357Z,6.03
2018-03-29T10:48:15.016Z,5.00
2018-03-29T10:50:47.235Z,7.43
2018-03-29T10:53:19.139Z,6.20
2018-03-29T10:55:51.018Z,6.40
2018-03-29T10:58:23.680Z,5.93
2018-03-29T11:00:55.561Z,5.47
2018-03-29T11:03:28.235Z,4.90
2018-03-29T11:06:00.117Z,4.43
2018-03-29T11:08:32.284Z,5.57
2018-03-29T11:11:04.164Z,4.80
2018-03-29T11:13:36.066Z,4.80
2018-03-29T11:16:07.940Z,3.87
2018-03-29T11:18:40.620Z,3.97
2018-03-29T11:21:13.261Z,3.93
2018-03-29T11:23:45.159Z,4.00
2018-03-29T11:26:17.032Z,4.20
2018-03-29T11:28:49.713Z,4.27
2018-03-29T11:31:22.373Z,4.17
2018-03-29T11:33:54.564Z,4.10
2018-03-29T11:36:26.451Z,4.07
2018-03-29T11:38:58.368Z,3.93
2018-03-29T11:41:31.024Z,3.87
2018-03-29T11:44:02.937Z,3.77
2018-03-29T11:46:34.816Z,4.20
2018-03-29T11:49:06.731Z,4.13
2018-03-29T11:51:39.735Z,3.80
2018-03-29T11:54:11.634Z,3.90
2018-03-29T11:56:43.593Z,4.50
2018-03-29T11:59:15.510Z,4.00
2018-03-29T12:01:48.163Z,3.53
2018-03-29T12:04:20.078Z,3.30
2018-03-29T12:06:52.232Z,3.53
2018-03-29T12:09:24.282Z,3.23
2018-03-29T12:11:56.941Z,3.00
2018-03-29T12:14:29.617Z,2.20
2018-03-29T12:17:01.546Z,1.90
2018-03-29T12:19:33.468Z,1.43
2018-03-29T12:22:05.352Z,1.70
2018-03-29T12:24:37.256Z,2.30
2018-03-29T12:27:09.457Z,2.60
2018-03-29T12:29:41.364Z,2.90
2018-03-29T12:32:13.254Z,3.40
2018-03-29T12:34:46.160Z,3.17
2018-03-29T12:37:18.327Z,3.10
2018-03-29T12:39:50.285Z,3.50
2018-03-29T12:42:22.185Z,2.93
2018-03-29T12:44:54.150Z,3.00
2018-03-29T12:47:26.740Z,2.60
2018-03-29T12:49:58.948Z,2.70
2018-03-29T12:52:31.116Z,3.03
2018-03-29T12:55:14.920Z,2.97
2018-03-29T12:57:58.572Z,3.07
2018-03-29T13:00:31.252Z,3.07
2018-03-29T13:03:03.992Z,3.50
2018-03-29T13:05:35.904Z,2.77
2018-03-29T13:08:08.554Z,2.77
2018-03-29T13:10:40.456Z,3.00
2018-03-29T13:13:12.328Z,3.47
2018-03-29T13:15:44.247Z,3.43
2018-03-29T13:18:16.129Z,3.20
2018-03-29T13:20:48.020Z,3.40
2018-03-29T13:23:19.927Z,3.87
2018-03-29T13:25:51.816Z,3.90
2018-03-29T13:28:23.692Z,3.93
2018-03-29T13:30:55.651Z,3.97
2018-03-29T13:33:28.256Z,4.30
2018-03-29T13:36:00.931Z,3.77
2018-03-29T13:38:32.819Z,3.60
2018-03-29T13:41:05.546Z,3.57
2018-03-29T13:43:37.696Z,3.83
2018-03-29T13:46:09.588Z,3.70
2018-03-29T13:48:41.632Z,3.50
2018-03-29T13:51:13.498Z,3.83
2018-03-29T13:53:45.369Z,3.90
2018-03-29T13:56:17.289Z,4.03
2018-03-29T13:58:49.929Z,3.83
2018-03-29T14:01:22.605Z,3.13
2018-03-29T14:03:54.481Z,3.50
2018-03-29T14:06:26.397Z,4.00
2018-03-29T14:08:58.273Z,4.30
2018-03-29T14:11:30.848Z,3.83
2018-03-29T14:14:02.730Z,4.10
2018-03-29T14:16:34.640Z,4.00
2018-03-29T14:19:06.525Z,3.90
2018-03-29T14:21:38.434Z,4.30
2018-03-29T14:24:11.068Z,4.27
2018-03-29T14:26:42.984Z,3.80
2018-03-29T14:29:15.627Z,3.27
2018-03-29T14:31:48.299Z,2.90
2018-03-29T14:34:20.181Z,3.30
2018-03-29T14:36:52.844Z,2.90
2018-03-29T14:39:24.736Z,2.90
2018-03-29T14:41:57.412Z,2.80
2018-03-29T14:44:30.313Z,2.97
2018-03-29T14:47:02.249Z,2.73
2018-03-29T14:49:34.109Z,3.03
2018-03-29T14:52:06.019Z,2.67
2018-03-29T14:54:37.897Z,3.20
2018-03-29T14:57:10.575Z,2.90
2018-03-29T14:59:42.452Z,2.70
2018-03-29T15:02:14.659Z,2.57
2018-03-29T15:04:46.829Z,3.50
2018-03-29T15:07:19.428Z,3.20
2018-03-29T15:09:51.324Z,3.57
2018-03-29T15:12:23.244Z,3.33
2018-03-29T15:14:55.127Z,2.93
2018-03-29T15:17:27.062Z,3.20
2018-03-29T15:19:58.961Z,2.97
2018-03-29T15:22:30.882Z,2.87
2018-03-29T15:25:02.797Z,3.10
2018-03-29T15:27:34.693Z,3.07
2018-03-29T15:30:07.389Z,2.60
2018-03-29T15:32:39.284Z,2.80
2018-03-29T15:35:11.172Z,3.43
2018-03-29T15:37:44.075Z,3.60
2018-03-29T15:40:15.968Z,3.93
2018-03-29T15:42:47.880Z,3.53
2018-03-29T15:45:20.544Z,3.47
2018-03-29T15:47:52.459Z,3.33
2018-03-29T15:50:24.755Z,3.23
2018-03-29T15:52:56.689Z,3.10
2018-03-29T15:55:28.560Z,3.20
2018-03-29T15:58:00.482Z,3.30
2018-03-29T16:00:33.133Z,2.97
2018-03-29T16:03:05.024Z,3.27
2018-03-29T16:05:36.902Z,3.33
2018-03-29T16:08:08.820Z,2.93
2018-03-29T16:10:40.712Z,3.53
2018-03-29T16:13:12.872Z,2.57
2018-03-29T16:15:44.761Z,2.60
2018-03-29T16:18:16.668Z,7.10
2018-03-29T16:20:49.320Z,3.30
2018-03-29T16:23:21.220Z,2.80
2018-03-29T16:25:53.897Z,2.50
2018-03-29T16:28:26.551Z,2.70
2018-03-29T16:30:58.651Z,2.60
2018-03-29T16:33:30.552Z,2.80
2018-03-29T16:36:02.432Z,2.17
2018-03-29T16:38:34.329Z,2.10
2018-03-29T16:41:06.972Z,2.10
2018-03-29T16:43:38.864Z,2.00
2018-03-29T16:46:11.521Z,1.93
2018-03-29T16:48:43.455Z,2.00
2018-03-29T16:51:15.319Z,2.00
2018-03-29T16:53:47.233Z,2.07
2018-03-29T16:56:19.107Z,2.10
2018-03-29T16:58:51.012Z,1.83
2018-03-29T17:01:22.887Z,2.20
2018-03-29T17:03:55.796Z,2.00
2018-03-29T17:06:27.708Z,2.40
2018-03-29T17:08:59.620Z,2.50
2018-03-29T17:11:31.497Z,2.20
2018-03-29T17:14:03.381Z,2.27
2018-03-29T17:16:35.510Z,3.27
2018-03-29T17:19:07.416Z,2.67
2018-03-29T17:21:39.356Z,2.77
2018-03-29T17:24:11.259Z,2.70
2018-03-29T17:26:43.137Z,2.53
2018-03-29T17:29:16.137Z,2.60
2018-03-29T17:31:48.297Z,2.87
2018-03-29T17:34:20.200Z,2.53
2018-03-29T17:36:52.076Z,2.43
2018-03-29T17:39:23.964Z,2.80
2018-03-29T17:41:57.444Z,2.70
2018-03-29T17:44:29.340Z,2.70
2018-03-29T17:47:01.212Z,2.60
2018-03-29T17:49:33.119Z,3.00
2018-03-29T17:52:04.995Z,4.00
2018-03-29T17:54:37.664Z,4.47
2018-03-29T17:57:09.859Z,3.43
2018-03-29T17:59:42.132Z,3.30
2018-03-29T18:02:14.013Z,2.63
2018-03-29T18:04:45.924Z,3.33
2018-03-29T18:07:17.796Z,3.40
2018-03-29T18:09:50.465Z,3.70
2018-03-29T18:12:22.351Z,3.90
2018-03-29T18:14:55.018Z,3.87
2018-03-29T18:17:27.653Z,3.83
2018-03-29T18:19:59.551Z,4.60
2018-03-29T18:22:32.200Z,3.60
2018-03-29T18:25:04.111Z,3.83
2018-03-29T18:27:35.992Z,3.87
2018-03-29T18:30:07.906Z,4.10
2018-03-29T18:32:40.556Z,4.30
2018-03-29T18:35:12.447Z,4.10
2018-03-29T18:37:45.083Z,4.33
2018-03-29T18:40:16.981Z,4.40
2018-03-29T18:42:48.860Z,4.50
2018-03-29T18:45:21.523Z,4.00
2018-03-29T18:47:54.156Z,3.90
2018-03-29T18:50:26.063Z,4.33
2018-03-29T18:52:58.701Z,3.83
2018-03-29T18:55:30.597Z,3.70
2018-03-29T18:58:03.240Z,3.67
2018-03-29T19:00:35.146Z,4.10
2018-03-29T19:03:07.782Z,3.73
2018-03-29T19:05:40.001Z,3.90
2018-03-29T19:08:11.888Z,4.03
2018-03-29T19:10:43.797Z,4.20
2018-03-29T19:13:15.679Z,4.07
2018-03-29T19:15:48.564Z,3.70
2018-03-29T19:18:20.444Z,3.30
2018-03-29T19:20:52.341Z,3.90
2018-03-29T19:23:24.214Z,3.80
2018-03-29T19:25:56.116Z,4.03
2018-03-29T19:28:28.276Z,3.87
2018-03-29T19:31:00.442Z,5.70
2018-03-29T19:33:32.611Z,6.03
2018-03-29T19:36:04.523Z,3.80
2018-03-29T19:38:36.687Z,3.93
2018-03-29T19:41:08.598Z,3.60
2018-03-29T19:43:40.758Z,3.53
2018-03-29T19:46:12.678Z,3.90
2018-03-29T19:48:44.889Z,3.97
2018-03-29T19:51:16.772Z,3.83
2018-03-29T19:53:48.656Z,4.23
2018-03-29T19:56:20.602Z,4.03
2018-03-29T19:58:52.481Z,3.77
2018-03-29T20:01:24.410Z,3.87
2018-03-29T20:03:56.285Z,3.90
2018-03-29T20:06:28.189Z,4.30
2018-03-29T20:09:01.093Z,3.80
2018-03-29T20:11:32.999Z,4.00
2018-03-29T20:14:04.868Z,3.87
2018-03-29T20:16:36.757Z,4.53
2018-03-29T20:19:09.408Z,3.63
2018-03-29T20:21:41.316Z,4.10
2018-03-29T20:24:13.197Z,4.00
2018-03-29T20:26:45.089Z,4.27
2018-03-29T20:29:16.959Z,4.13
2018-03-29T20:31:48.862Z,4.10
2018-03-29T20:34:20.751Z,4.60
2018-03-29T20:36:52.661Z,6.13
2018-03-29T20:39:25.299Z,6.40
2018-03-29T20:41:57.520Z,7.23
2018-03-29T20:44:29.685Z,4.30
2018-03-29T20:47:01.589Z,3.77
2018-03-29T20:49:33.463Z,3.97
2018-03-29T20:52:05.676Z,4.30
2018-03-29T20:54:37.568Z,4.43
2018-03-29T20:57:09.461Z,4.47
2018-03-29T20:59:41.337Z,4.00
2018-03-29T21:02:14.021Z,3.63
2018-03-29T21:04:46.915Z,3.90
2018-03-29T21:07:18.813Z,4.20
